Time;durP1;ratioP1;P1;durP2;ratioP2;P2;SDS_P1;SDS_P2;PMS_P1;PMS_P2;Temp;Humidity;BMP_temperature;BMP_pressure;BME280_temperature;BME280_humidity;BME280_pressure;Samples;Min_cycle;Max_cycle;Signal;HPM_P1;HPM_P2
2023/04/10 00:00:05;;;;;;;60.77;47.30;;;5.00;91.90;;;;;;4994004;28;20204;-87
2023/04/10 00:02:31;;;;;;;63.40;47.60;;;5.00;91.90;;;;;;4992414;28;20683;-87
2023/04/10 00:04:57;;;;;;;68.37;47.90;;;5.00;92.00;;;;;;4992537;28;20232;-87
2023/04/10 00:07:23;;;;;;;62.87;47.07;;;5.00;92.00;;;;;;4995745;28;20212;-87
2023/04/10 00:09:48;;;;;;;62.50;47.23;;;4.90;92.00;;;;;;4996919;28;20193;-87
2023/04/10 00:12:14;;;;;;;62.93;47.83;;;4.90;92.00;;;;;;4996155;28;20200;-87
2023/04/10 00:14:40;;;;;;;61.93;47.43;;;5.00;92.10;;;;;;4997827;28;20588;-87
2023/04/10 00:17:06;;;;;;;67.97;47.70;;;4.90;92.20;;;;;;4996394;28;20200;-87
2023/04/10 00:19:32;;;;;;;68.33;49.97;;;5.00;92.30;;;;;;4997263;28;20687;-87
2023/04/10 00:21:58;;;;;;;71.27;50.60;;;5.00;92.30;;;;;;4996104;28;20227;-87
2023/04/10 00:24:23;;;;;;;68.97;51.63;;;5.10;92.30;;;;;;4997246;28;20206;-86
2023/04/10 00:26:49;;;;;;;68.83;52.03;;;5.10;92.40;;;;;;4997337;28;20178;-86
2023/04/10 00:29:15;;;;;;;64.77;50.30;;;5.20;92.40;;;;;;4996057;28;20268;-86
2023/04/10 00:31:40;;;;;;;65.27;52.17;;;5.20;92.50;;;;;;4996054;28;20247;-86
2023/04/10 00:34:06;;;;;;;65.60;50.70;;;5.30;92.50;;;;;;4995963;28;20258;-86
2023/04/10 00:36:32;;;;;;;66.07;51.33;;;5.30;92.50;;;;;;4995948;28;20196;-86
2023/04/10 00:38:58;;;;;;;67.90;52.87;;;5.30;92.50;;;;;;4996968;28;20205;-87
2023/04/10 00:41:24;;;;;;;70.63;53.13;;;5.30;92.50;;;;;;4996042;28;20217;-86
2023/04/10 00:43:57;;;;;;;67.60;52.13;;;5.50;92.60;;;;;;4995678;28;20182;-86
2023/04/10 00:46:23;;;;;;;63.37;50.43;;;5.50;92.60;;;;;;4997004;28;20162;-87
2023/04/10 00:48:51;;;;;;;65.93;53.20;;;5.40;92.60;;;;;;4996001;28;20217;-87
2023/04/10 00:51:19;;;;;;;64.00;51.73;;;5.40;92.50;;;;;;4995670;28;20288;-87
2023/04/10 00:53:50;;;;;;;68.40;53.33;;;5.40;92.60;;;;;;4995645;28;20188;-86
2023/04/10 00:56:16;;;;;;;67.43;52.73;;;5.50;92.60;;;;;;4996407;28;20173;-86
2023/04/10 00:58:42;;;;;;;71.50;54.53;;;5.50;92.60;;;;;;4995514;28;20636;-87
2023/04/10 01:01:07;;;;;;;66.97;54.03;;;5.50;92.60;;;;;;4995463;28;20198;-86
2023/04/10 01:03:34;;;;;;;69.07;54.23;;;5.60;92.60;;;;;;4995639;28;20181;-87
2023/04/10 01:06:07;;;;;;;75.13;53.43;;;5.60;92.60;;;;;;4995918;28;20178;-87
2023/04/10 01:08:38;;;;;;;67.87;54.40;;;5.60;92.60;;;;;;4995307;28;20189;-87
2023/04/10 01:11:17;;;;;;;69.97;54.17;;;5.70;92.70;;;;;;4996458;28;20202;-87
2023/04/10 01:13:45;;;;;;;71.63;55.23;;;5.70;92.70;;;;;;4996452;28;20166;-88
2023/04/10 01:16:19;;;;;;;72.00;56.17;;;5.70;92.70;;;;;;4995165;28;20273;-86
2023/04/10 01:19:28;;;;;;;74.80;55.83;;;5.80;92.70;;;;;;4994096;28;20620;-87
2023/04/10 01:21:54;;;;;;;71.83;57.33;;;5.90;92.70;;;;;;4936390;29;20207;-88
2023/04/10 01:24:33;;;;;;;75.93;55.93;;;5.90;92.60;;;;;;4983336;28;20178;-88
2023/04/10 01:27:21;;;;;;;70.47;55.03;;;5.90;92.70;;;;;;4995047;28;20174;-88
2023/04/10 01:29:52;;;;;;;71.53;54.73;;;5.90;92.60;;;;;;4994985;28;20209;-87
2023/04/10 01:32:21;;;;;;;73.23;57.37;;;6.00;92.50;;;;;;4996356;28;20194;-88
2023/04/10 01:34:55;;;;;;;67.87;54.20;;;6.00;92.50;;;;;;4994977;28;20209;-87
2023/04/10 01:37:26;;;;;;;71.77;52.97;;;6.10;92.50;;;;;;4994881;28;20177;-87
2023/04/10 01:40:08;;;;;;;70.93;54.73;;;6.10;92.40;;;;;;4995284;28;20190;-87
2023/04/10 01:42:40;;;;;;;66.27;54.13;;;6.10;92.40;;;;;;4994547;28;20308;-87
2023/04/10 01:45:08;;;;;;;69.17;52.20;;;6.10;92.30;;;;;;4996235;28;20159;-87
2023/04/10 01:47:34;;;;;;;63.83;52.57;;;6.10;92.30;;;;;;4994612;28;20170;-86
2023/04/10 01:50:00;;;;;;;67.93;53.70;;;6.10;92.20;;;;;;4995826;28;20556;-88
2023/04/10 01:52:27;;;;;;;63.93;52.73;;;6.10;92.10;;;;;;4994766;28;20224;-88
2023/04/10 01:54:53;;;;;;;61.80;50.17;;;6.10;92.10;;;;;;4994441;28;20182;-88
2023/04/10 01:57:19;;;;;;;63.67;50.40;;;6.10;92.00;;;;;;4995602;28;20664;-87
2023/04/10 01:59:46;;;;;;;65.40;53.97;;;6.10;91.90;;;;;;4995547;28;20197;-87
2023/04/10 02:02:11;;;;;;;65.27;53.47;;;6.10;91.90;;;;;;4995553;28;20194;-88
2023/04/10 02:04:37;;;;;;;63.37;51.30;;;6.10;91.80;;;;;;4994374;28;20548;-88
2023/04/10 02:07:09;;;;;;;60.77;50.17;;;6.20;91.80;;;;;;4995513;28;20232;-88
2023/04/10 02:09:49;;;;;;;61.50;48.70;;;6.20;91.80;;;;;;4995482;28;20655;-88
2023/04/10 02:12:25;;;;;;;62.83;49.43;;;6.30;91.80;;;;;;4994053;28;20239;-87
2023/04/10 02:14:55;;;;;;;60.90;49.47;;;6.30;91.70;;;;;;4995663;28;20166;-88
2023/04/10 02:17:27;;;;;;;57.80;47.47;;;6.30;91.50;;;;;;4994066;28;20171;-87
2023/04/10 02:19:54;;;;;;;56.77;46.73;;;6.30;91.50;;;;;;4994092;28;20561;-87
2023/04/10 02:22:22;;;;;;;57.67;47.67;;;6.30;91.30;;;;;;4994210;28;20189;-87
2023/04/10 02:24:48;;;;;;;56.23;46.33;;;6.30;91.30;;;;;;4995146;28;20254;-87
2023/04/10 02:27:15;;;;;;;58.53;47.37;;;6.30;91.20;;;;;;4995138;28;20527;-88
2023/04/10 02:29:40;;;;;;;52.87;44.67;;;6.30;91.10;;;;;;4993691;28;20184;-87
2023/04/10 02:32:06;;;;;;;57.80;47.23;;;6.30;91.00;;;;;;4993719;28;20285;-87
2023/04/10 02:34:31;;;;;;;59.07;46.27;;;6.40;90.90;;;;;;4993745;28;20178;-88
2023/04/10 02:36:57;;;;;;;58.90;46.40;;;6.40;90.80;;;;;;4994797;28;20212;-88
2023/04/10 02:39:22;;;;;;;56.13;44.33;;;6.30;90.70;;;;;;4994858;28;20680;-88
2023/04/10 02:41:48;;;;;;;56.53;46.07;;;6.40;90.70;;;;;;4993910;28;20738;-87
2023/04/10 02:44:13;;;;;;;55.77;45.13;;;6.30;90.50;;;;;;4993583;28;20181;-87
2023/04/10 02:46:40;;;;;;;58.80;46.23;;;6.30;90.50;;;;;;4993825;28;20274;-87
2023/04/10 02:49:06;;;;;;;57.33;44.70;;;6.30;90.40;;;;;;4993572;28;20174;-87
2023/04/10 02:51:35;;;;;;;58.90;46.33;;;6.30;90.30;;;;;;4993971;28;20260;-87
2023/04/10 02:54:01;;;;;;;56.93;45.20;;;6.40;90.30;;;;;;4993464;28;20173;-87
2023/04/10 02:56:26;;;;;;;57.83;45.23;;;6.30;90.20;;;;;;4993310;28;20548;-87
2023/04/10 02:58:52;;;;;;;52.57;44.43;;;6.40;90.10;;;;;;4993133;28;20228;-87
2023/04/10 03:01:17;;;;;;;55.77;45.17;;;6.30;90.00;;;;;;4993229;28;20576;-88
2023/04/10 03:03:43;;;;;;;54.43;45.23;;;6.30;90.10;;;;;;4994417;28;20174;-88
2023/04/10 03:06:09;;;;;;;51.80;43.53;;;6.30;89.90;;;;;;4994395;28;20185;-87
2023/04/10 03:08:35;;;;;;;55.37;44.47;;;6.30;89.90;;;;;;4993210;28;20177;-88
2023/04/10 03:11:00;;;;;;;52.67;44.60;;;6.30;89.90;;;;;;4993107;28;20205;-87
2023/04/10 03:13:26;;;;;;;52.67;44.73;;;6.30;89.80;;;;;;4993179;28;20261;-87
2023/04/10 03:15:51;;;;;;;54.23;43.23;;;6.30;89.70;;;;;;4994544;28;20604;-88
2023/04/10 03:18:17;;;;;;;58.97;44.10;;;6.30;89.70;;;;;;4993000;28;20186;-88
2023/04/10 03:20:42;;;;;;;49.30;42.53;;;6.30;89.70;;;;;;4993207;28;20216;-87
2023/04/10 03:23:09;;;;;;;51.53;43.27;;;6.20;89.60;;;;;;4993144;28;20190;-88
2023/04/10 03:25:35;;;;;;;53.50;43.43;;;6.30;89.70;;;;;;4993045;28;20566;-87
2023/04/10 03:28:01;;;;;;;57.80;44.27;;;6.20;89.60;;;;;;4992938;28;20181;-87
2023/04/10 03:30:27;;;;;;;55.60;43.60;;;6.30;89.70;;;;;;4994013;28;20644;-87
2023/04/10 03:32:52;;;;;;;51.83;41.67;;;6.20;89.60;;;;;;4992761;28;20668;-88
2023/04/10 03:35:18;;;;;;;51.93;42.93;;;6.20;89.50;;;;;;4993855;28;20189;-88
2023/04/10 03:37:43;;;;;;;51.40;42.93;;;6.20;89.50;;;;;;4992755;28;20631;-88
2023/04/10 03:40:10;;;;;;;52.10;41.67;;;6.10;89.40;;;;;;4993830;28;20202;-88
2023/04/10 03:42:35;;;;;;;52.57;42.93;;;6.10;89.40;;;;;;4993096;28;20202;-88
2023/04/10 03:45:03;;;;;;;55.10;42.57;;;6.10;89.30;;;;;;4993810;28;20552;-88
2023/04/10 03:47:30;;;;;;;56.00;43.83;;;6.00;89.40;;;;;;4992620;28;20182;-88
2023/04/10 03:49:56;;;;;;;55.10;43.03;;;6.10;89.40;;;;;;4992913;28;20534;-88
2023/04/10 03:52:21;;;;;;;55.03;42.13;;;6.00;89.30;;;;;;4992534;28;20292;-88
2023/04/10 03:54:47;;;;;;;54.73;42.30;;;6.00;89.30;;;;;;4992865;28;20177;-88
2023/04/10 03:57:12;;;;;;;52.40;43.00;;;6.00;89.20;;;;;;4993131;28;20178;-88
2023/04/10 03:59:38;;;;;;;52.53;41.33;;;5.90;89.10;;;;;;4993710;28;20248;-88
2023/04/10 04:02:05;;;;;;;51.70;41.97;;;5.90;89.20;;;;;;4992340;28;20301;-88
2023/04/10 04:04:30;;;;;;;49.73;40.30;;;5.90;89.20;;;;;;4992842;28;20189;-88
2023/04/10 04:06:56;;;;;;;47.97;41.20;;;5.80;89.20;;;;;;4992519;28;20166;-88
2023/04/10 04:09:21;;;;;;;52.07;41.93;;;5.80;89.20;;;;;;4993616;28;20583;-88
2023/04/10 04:11:47;;;;;;;53.33;42.10;;;5.80;89.20;;;;;;4992439;28;20201;-88
2023/04/10 04:14:12;;;;;;;51.77;41.53;;;5.70;89.20;;;;;;4992476;28;20186;-88
2023/04/10 04:16:38;;;;;;;52.63;40.90;;;5.80;89.30;;;;;;4993241;28;20274;-88
2023/04/10 04:19:03;;;;;;;50.47;41.70;;;5.70;89.30;;;;;;4992222;28;20647;-88
2023/04/10 04:21:30;;;;;;;51.23;41.93;;;5.70;89.30;;;;;;4992313;28;20698;-88
2023/04/10 04:23:56;;;;;;;50.00;41.80;;;5.70;89.30;;;;;;4992766;28;20212;-88
2023/04/10 04:26:23;;;;;;;51.97;42.17;;;5.70;89.30;;;;;;4994039;28;20233;-87
2023/04/10 04:28:49;;;;;;;51.93;41.93;;;5.80;89.20;;;;;;4992205;28;20174;-88
2023/04/10 04:31:15;;;;;;;50.03;41.00;;;5.70;89.20;;;;;;4992500;28;20541;-88
2023/04/10 04:33:40;;;;;;;55.43;42.93;;;5.60;89.10;;;;;;4992195;28;20175;-88
2023/04/10 04:36:06;;;;;;;48.30;40.63;;;5.60;89.20;;;;;;4992340;28;20647;-88
2023/04/10 04:38:32;;;;;;;49.90;40.73;;;5.60;89.10;;;;;;4992596;28;20185;-88
2023/04/10 04:40:57;;;;;;;55.53;42.53;;;5.60;89.10;;;;;;4991870;28;20597;-87
2023/04/10 04:43:23;;;;;;;50.10;39.90;;;5.60;89.20;;;;;;4993922;28;20589;-87
2023/04/10 04:45:48;;;;;;;49.40;41.17;;;5.60;89.10;;;;;;4992146;28;20174;-87
2023/04/10 04:48:14;;;;;;;49.93;40.90;;;5.50;89.10;;;;;;4992063;28;20185;-87
2023/04/10 04:50:40;;;;;;;52.07;41.03;;;5.60;89.10;;;;;;4992026;28;20185;-87
2023/04/10 04:53:06;;;;;;;51.43;42.13;;;5.50;89.10;;;;;;4994335;28;20188;-88
2023/04/10 04:55:32;;;;;;;49.37;41.00;;;5.60;89.20;;;;;;4995676;28;20181;-88
2023/04/10 04:57:58;;;;;;;48.17;39.83;;;5.60;89.20;;;;;;4995793;28;20764;-88
2023/04/10 05:00:23;;;;;;;46.33;39.30;;;5.60;89.20;;;;;;4995523;28;20201;-88
2023/04/10 05:02:49;;;;;;;50.30;41.57;;;5.70;89.10;;;;;;4995384;28;20640;-88
2023/04/10 05:05:14;;;;;;;53.33;40.00;;;5.80;89.10;;;;;;4997107;28;20621;-88
2023/04/10 05:07:40;;;;;;;49.10;39.47;;;5.80;89.00;;;;;;4995463;28;20174;-88
2023/04/10 05:10:07;;;;;;;49.47;40.40;;;5.80;88.90;;;;;;4996617;28;20180;-88
2023/04/10 05:12:32;;;;;;;49.60;40.27;;;5.90;88.90;;;;;;4995264;28;20209;-88
2023/04/10 05:14:58;;;;;;;49.43;39.23;;;5.90;88.90;;;;;;4995301;28;20182;-88
2023/04/10 05:17:24;;;;;;;50.20;39.53;;;6.00;88.90;;;;;;4995198;28;20184;-88
2023/04/10 05:19:49;;;;;;;50.83;40.70;;;6.10;88.90;;;;;;4995139;28;20612;-88
2023/04/10 05:22:15;;;;;;;48.70;40.07;;;6.10;88.80;;;;;;4995107;28;20236;-88
2023/04/10 05:24:40;;;;;;;54.00;40.57;;;6.20;88.80;;;;;;4994994;28;20174;-87
2023/04/10 05:27:06;;;;;;;51.67;40.23;;;6.30;88.70;;;;;;4995424;28;20617;-88
2023/04/10 05:29:31;;;;;;;50.77;39.23;;;6.40;88.70;;;;;;4995722;28;20541;-87
2023/04/10 05:31:57;;;;;;;52.23;41.03;;;6.50;88.50;;;;;;4994932;28;20204;-87
2023/04/10 05:34:22;;;;;;;45.57;37.73;;;6.50;88.30;;;;;;4995100;28;20185;-87
2023/04/10 05:36:48;;;;;;;48.17;39.53;;;6.60;88.20;;;;;;4995022;28;20363;-88
2023/04/10 05:39:14;;;;;;;46.37;39.00;;;6.60;88.10;;;;;;4994722;28;20213;-88
2023/04/10 05:41:40;;;;;;;52.43;39.57;;;6.60;87.90;;;;;;4994624;28;20214;-88
2023/04/10 05:44:05;;;;;;;47.43;39.33;;;6.60;87.80;;;;;;4994710;28;20179;-88
2023/04/10 05:46:31;;;;;;;51.60;40.17;;;6.60;87.80;;;;;;4996169;28;20647;-88
2023/04/10 05:48:57;;;;;;;47.10;37.47;;;6.70;87.70;;;;;;4994934;28;20182;-88
2023/04/10 05:51:22;;;;;;;48.37;39.23;;;6.70;87.70;;;;;;4994513;28;20198;-88
2023/04/10 05:53:50;;;;;;;49.07;38.17;;;6.70;87.70;;;;;;4994938;28;20206;-88
2023/04/10 05:56:15;;;;;;;49.27;39.93;;;6.80;87.70;;;;;;4994496;28;20194;-88
2023/04/10 05:58:41;;;;;;;42.80;36.87;;;6.80;87.50;;;;;;4994429;28;20244;-88
2023/04/10 06:01:06;;;;;;;45.90;38.30;;;6.90;87.40;;;;;;4995026;28;20210;-88
2023/04/10 06:03:32;;;;;;;49.13;37.80;;;6.90;87.30;;;;;;4994659;28;20741;-88
2023/04/10 06:05:59;;;;;;;49.57;39.23;;;7.00;87.30;;;;;;4993800;28;20178;-88
2023/04/10 06:08:25;;;;;;;47.67;38.17;;;7.10;87.20;;;;;;4994302;28;20224;-88
2023/04/10 06:10:50;;;;;;;47.17;38.73;;;7.10;87.30;;;;;;4994313;28;20660;-88
2023/04/10 06:13:16;;;;;;;46.00;37.80;;;7.20;87.30;;;;;;4995610;28;20178;-88
2023/04/10 06:15:42;;;;;;;44.53;37.37;;;7.20;87.20;;;;;;4994325;28;20672;-88
2023/04/10 06:18:08;;;;;;;45.33;37.07;;;7.30;86.90;;;;;;4994322;28;20188;-88
2023/04/10 06:20:33;;;;;;;49.10;38.23;;;7.30;86.70;;;;;;4994311;28;20591;-88
2023/04/10 06:22:59;;;;;;;46.57;38.87;;;7.30;86.60;;;;;;4995224;28;20194;-87
2023/04/10 06:25:25;;;;;;;45.50;37.17;;;7.30;86.40;;;;;;4993910;28;20663;-88
2023/04/10 06:27:51;;;;;;;42.90;36.30;;;7.40;86.20;;;;;;4993928;28;20181;-88
2023/04/10 06:30:16;;;;;;;41.50;34.93;;;7.50;85.80;;;;;;4993952;28;20648;-88
2023/04/10 06:32:42;;;;;;;42.80;34.73;;;7.50;85.30;;;;;;4993702;28;20668;-88
2023/04/10 06:35:08;;;;;;;42.70;34.63;;;7.60;85.10;;;;;;4993722;28;20182;-88
2023/04/10 06:37:33;;;;;;;42.20;35.90;;;7.60;85.10;;;;;;4994262;28;20178;-88
2023/04/10 06:40:02;;;;;;;42.57;35.43;;;7.70;84.90;;;;;;4995182;28;20209;-87
2023/04/10 06:42:28;;;;;;;41.00;36.60;;;7.70;84.90;;;;;;4995272;28;20202;-88
2023/04/10 06:44:53;;;;;;;45.43;37.30;;;7.70;84.80;;;;;;4993566;28;20668;-88
2023/04/10 06:47:19;;;;;;;45.43;34.90;;;7.70;84.70;;;;;;4993527;28;20197;-87
2023/04/10 06:49:44;;;;;;;44.03;35.87;;;7.70;84.90;;;;;;4993436;28;20189;-88
2023/04/10 06:52:10;;;;;;;39.97;34.93;;;7.80;84.40;;;;;;4993358;28;20220;-88
2023/04/10 06:54:35;;;;;;;39.37;35.07;;;7.90;84.30;;;;;;4994937;28;20166;-88
2023/04/10 06:57:02;;;;;;;39.70;35.10;;;8.00;84.40;;;;;;4993292;28;20178;-88
2023/04/10 06:59:28;;;;;;;40.00;35.00;;;8.00;84.40;;;;;;4994714;28;20276;-88
2023/04/10 07:01:53;;;;;;;42.17;34.97;;;8.10;84.10;;;;;;4993230;28;20194;-87
2023/04/10 07:04:19;;;;;;;46.40;35.17;;;8.10;84.00;;;;;;4993297;28;20178;-88
2023/04/10 07:06:45;;;;;;;39.87;34.40;;;8.20;83.50;;;;;;4993223;28;20269;-88
2023/04/10 07:09:10;;;;;;;37.43;33.23;;;8.30;83.30;;;;;;4994390;28;20205;-87
2023/04/10 07:11:36;;;;;;;37.63;32.60;;;8.30;83.00;;;;;;4994236;28;20660;-87
2023/04/10 07:14:01;;;;;;;38.27;34.00;;;8.30;82.70;;;;;;4993135;28;20181;-87
2023/04/10 07:16:28;;;;;;;39.33;32.77;;;8.50;82.70;;;;;;4992191;28;20240;-87
2023/04/10 07:18:53;;;;;;;38.53;33.30;;;8.50;82.50;;;;;;4993045;28;20170;-87
2023/04/10 07:21:19;;;;;;;42.23;33.20;;;8.60;82.60;;;;;;4992831;28;20197;-88
2023/04/10 07:23:45;;;;;;;39.07;34.23;;;8.80;82.40;;;;;;4993096;28;20178;-88
2023/04/10 07:26:10;;;;;;;39.57;34.00;;;8.80;82.60;;;;;;4993217;28;20185;-88
2023/04/10 07:28:37;;;;;;;38.03;33.80;;;8.90;82.30;;;;;;4992882;28;20178;-89
2023/04/10 07:31:02;;;;;;;39.07;34.23;;;9.00;81.30;;;;;;4994007;28;20186;-89
2023/04/10 07:33:28;;;;;;;36.13;32.20;;;9.00;81.10;;;;;;4994153;28;20181;-90
2023/04/10 07:35:53;;;;;;;36.50;32.70;;;9.20;80.60;;;;;;4994288;28;20231;-89
2023/04/10 07:38:19;;;;;;;40.03;32.73;;;9.30;80.50;;;;;;4993033;28;20177;-90
2023/04/10 07:40:45;;;;;;;35.27;31.53;;;9.40;79.90;;;;;;4993738;28;20222;-89
2023/04/10 07:43:11;;;;;;;37.90;33.67;;;9.60;79.90;;;;;;4994356;28;20162;-90
2023/04/10 07:45:36;;;;;;;36.83;32.90;;;9.50;80.30;;;;;;4994530;28;20162;-90
2023/04/10 07:48:02;;;;;;;37.33;33.07;;;9.60;79.70;;;;;;4994145;28;20166;-90
2023/04/10 07:50:29;;;;;;;36.83;33.07;;;9.70;80.00;;;;;;4994244;28;20181;-90
2023/04/10 07:52:55;;;;;;;33.23;29.40;;;9.90;78.70;;;;;;4993134;28;20256;-90
2023/04/10 07:55:21;;;;;;;34.57;30.97;;;9.90;79.00;;;;;;4994172;28;20174;-90
2023/04/10 07:57:46;;;;;;;35.47;31.67;;;10.10;78.70;;;;;;4994218;28;20177;-90
2023/04/10 08:00:12;;;;;;;35.17;31.23;;;10.30;78.00;;;;;;4993810;28;20198;-90
2023/04/10 08:02:39;;;;;;;35.40;31.80;;;10.30;76.90;;;;;;4993991;28;20194;-90
2023/04/10 08:05:06;;;;;;;34.60;30.40;;;10.60;77.00;;;;;;4994074;28;20163;-90
2023/04/10 08:07:31;;;;;;;31.97;28.73;;;10.70;76.90;;;;;;4993811;28;20177;-90
2023/04/10 08:09:57;;;;;;;32.77;29.57;;;10.70;75.10;;;;;;4994202;28;20162;-89
2023/04/10 08:12:22;;;;;;;32.43;29.23;;;10.70;75.30;;;;;;4993890;28;20276;-89
2023/04/10 08:14:50;;;;;;;32.80;29.60;;;10.70;74.40;;;;;;4993780;28;20178;-90
2023/04/10 08:17:19;;;;;;;32.27;28.63;;;10.80;74.80;;;;;;4993812;28;20177;-90
2023/04/10 08:19:44;;;;;;;33.30;30.10;;;10.80;74.00;;;;;;4994011;28;20190;-89
2023/04/10 08:22:10;;;;;;;32.63;29.40;;;10.90;73.90;;;;;;4993779;28;20632;-90
2023/04/10 08:24:35;;;;;;;35.63;31.97;;;11.10;74.00;;;;;;4993635;28;20224;-89
2023/04/10 08:27:01;;;;;;;32.03;28.67;;;11.30;72.50;;;;;;4993826;28;20232;-89
2023/04/10 08:29:26;;;;;;;31.50;28.43;;;11.40;73.10;;;;;;4995835;28;20182;-89
2023/04/10 08:31:53;;;;;;;34.87;31.50;;;11.60;73.70;;;;;;4997469;28;20204;-90
2023/04/10 08:34:19;;;;;;;33.70;30.27;;;11.70;71.10;;;;;;4997271;28;20672;-91
2023/04/10 08:36:44;;;;;;;31.60;28.40;;;11.80;72.40;;;;;;4997596;28;20174;-90
2023/04/10 08:39:10;;;;;;;33.70;30.33;;;11.80;71.30;;;;;;4997225;28;20178;-90
2023/04/10 08:41:35;;;;;;;33.83;29.40;;;12.00;70.40;;;;;;4996962;28;20237;-89
2023/04/10 08:44:01;;;;;;;35.13;31.60;;;12.10;71.80;;;;;;4997106;28;20655;-88
2023/04/10 08:46:30;;;;;;;32.87;29.30;;;12.30;70.30;;;;;;4996125;28;20182;-90
2023/04/10 08:49:05;;;;;;;34.33;31.00;;;12.40;69.20;;;;;;4997663;28;20166;-90
2023/04/10 08:51:37;;;;;;;34.07;30.60;;;12.60;71.10;;;;;;4997459;28;20271;-90
2023/04/10 08:54:09;;;;;;;29.93;26.97;;;12.70;68.20;;;;;;4997465;28;20217;-90
2023/04/10 08:56:38;;;;;;;53.57;35.47;;;12.80;67.00;;;;;;4996896;28;20170;-90
2023/04/10 08:59:04;;;;;;;30.90;28.00;;;13.00;67.20;;;;;;4996669;28;20178;-89
2023/04/10 09:01:30;;;;;;;30.73;27.83;;;13.00;64.80;;;;;;4996709;28;20612;-89
2023/04/10 09:03:56;;;;;;;37.00;32.27;;;13.30;65.60;;;;;;4996694;28;20204;-90
2023/04/10 09:06:22;;;;;;;31.03;28.37;;;13.30;64.70;;;;;;4995875;28;20178;-90
2023/04/10 09:08:47;;;;;;;31.07;28.17;;;13.30;63.40;;;;;;4996821;28;20668;-90
2023/04/10 09:11:13;;;;;;;34.07;30.80;;;13.40;64.40;;;;;;5002995;22;20656;-92
2023/04/10 09:13:43;;;;;;;31.87;29.10;;;13.70;65.20;;;;;;4957118;29;20182;-91
2023/04/10 09:16:10;;;;;;;30.10;27.57;;;13.80;62.50;;;;;;4958162;29;20164;-91
2023/04/10 09:18:47;;;;;;;30.13;27.53;;;13.90;61.70;;;;;;4958047;29;20198;-91
2023/04/10 09:21:15;;;;;;;28.43;25.93;;;14.10;59.70;;;;;;4956522;29;20214;-91
2023/04/10 09:23:43;;;;;;;26.10;23.80;;;14.20;60.60;;;;;;4956787;29;20175;-91
2023/04/10 09:26:32;;;;;;;26.73;24.52;;;14.40;59.20;;;;;;4956314;29;20182;-91
2023/04/10 09:29:03;;;;;;;27.07;24.67;;;14.50;59.90;;;;;;4956268;29;20323;-90
2023/04/10 09:31:31;;;;;;;28.88;25.98;;;14.70;59.50;;;;;;4956502;29;20290;-89
2023/04/10 09:34:11;;;;;;;26.83;24.52;;;15.00;56.80;;;;;;4956428;29;20198;-89
2023/04/10 09:36:37;;;;;;;27.58;25.38;;;15.20;57.50;;;;;;4956078;29;20183;-89
2023/04/10 09:39:04;;;;;;;26.20;24.08;;;15.00;57.70;;;;;;4955731;28;20179;-89
2023/04/10 09:41:30;;;;;;;24.45;22.55;;;15.10;55.90;;;;;;4955910;29;20203;-89
2023/04/10 09:44:07;;;;;;;25.25;23.05;;;15.10;55.30;;;;;;4956329;29;20175;-90
2023/04/10 09:46:33;;;;;;;25.77;23.67;;;15.10;55.10;;;;;;4955972;29;20175;-90
2023/04/10 09:49:03;;;;;;;24.10;22.17;;;15.00;54.80;;;;;;4956077;29;20176;-88
2023/04/10 09:51:30;;;;;;;24.60;22.70;;;15.20;56.40;;;;;;4956130;29;20198;-89
2023/04/10 09:53:56;;;;;;;24.48;22.52;;;15.50;54.50;;;;;;4956437;29;20258;-90
2023/04/10 09:56:25;;;;;;;24.40;22.05;;;15.50;53.70;;;;;;4956854;29;20618;-90
2023/04/10 09:58:52;;;;;;;23.13;21.10;;;15.50;52.90;;;;;;4956011;29;20235;-90
2023/04/10 10:01:19;;;;;;;22.88;20.98;;;15.50;53.80;;;;;;4956059;29;20218;-88
2023/04/10 10:03:45;;;;;;;22.73;20.88;;;15.60;53.10;;;;;;4955837;29;20230;-89
2023/04/10 10:06:11;;;;;;;24.35;22.38;;;15.50;51.10;;;;;;4955942;29;20182;-89
2023/04/10 10:08:37;;;;;;;24.48;22.05;;;15.70;53.50;;;;;;4956611;29;20258;-90
2023/04/10 10:11:07;;;;;;;22.40;20.60;;;15.90;51.70;;;;;;4955926;28;20211;-87
2023/04/10 10:13:52;;;;;;;23.20;21.33;;;15.80;49.40;;;;;;4956941;29;20163;-91
2023/04/10 10:16:34;;;;;;;21.42;19.77;;;15.90;49.40;;;;;;4955680;29;20200;-88
2023/04/10 10:19:30;;;;;;;24.60;22.75;;;16.10;50.50;;;;;;4955450;29;20179;-87
2023/04/10 10:21:59;;;;;;;28.00;25.42;;;16.20;50.90;;;;;;4943777;29;20203;-90
2023/04/10 10:24:26;;;;;;;24.52;22.42;;;16.00;50.50;;;;;;4955333;29;20609;-90
2023/04/10 10:26:56;;;;;;;24.38;22.25;;;16.10;51.60;;;;;;4955350;29;20175;-90
2023/04/10 10:29:22;;;;;;;23.50;21.58;;;15.70;48.60;;;;;;4955253;29;20770;-90
2023/04/10 10:31:48;;;;;;;25.20;23.10;;;15.30;49.50;;;;;;4955048;29;20214;-89
2023/04/10 10:34:15;;;;;;;23.73;21.83;;;15.30;51.00;;;;;;4956401;29;20649;-91
2023/04/10 10:36:41;;;;;;;23.98;21.98;;;15.50;53.60;;;;;;4955561;29;20183;-89
2023/04/10 10:39:29;;;;;;;24.52;22.58;;;15.70;50.20;;;;;;4955456;29;20183;-90
2023/04/10 10:42:26;;;;;;;24.25;22.15;;;16.00;49.00;;;;;;4955423;29;20195;-89
2023/04/10 10:45:05;;;;;;;25.05;23.05;;;16.20;49.00;;;;;;4954951;29;20540;-89
2023/04/10 10:47:32;;;;;;;23.83;21.92;;;16.30;48.00;;;;;;4954965;29;20692;-90
2023/04/10 10:49:59;;;;;;;23.40;21.40;;;16.30;47.60;;;;;;4955774;29;20274;-91
2023/04/10 10:52:48;;;;;;;22.55;20.55;;;16.60;47.20;;;;;;4954922;28;20219;-89
2023/04/10 10:57:53;;;;;;;22.70;20.98;;;16.70;46.00;;;;;;4955947;29;20178;-91
2023/04/10 11:00:23;;;;;;;28.33;25.77;;;16.70;47.50;;;;;;4954890;29;20278;-90
2023/04/10 11:03:12;;;;;;;25.10;23.10;;;16.70;47.60;;;;;;4955804;29;20172;-90
2023/04/10 11:06:01;;;;;;;24.45;22.65;;;16.80;46.40;;;;;;4948909;29;20194;-90
2023/04/10 11:08:46;;;;;;;22.52;20.83;;;17.00;48.30;;;;;;4956059;29;20170;-92
2023/04/10 11:11:22;;;;;;;22.63;20.92;;;17.00;46.20;;;;;;4954383;29;20215;-89
2023/04/10 11:13:57;;;;;;;23.92;22.05;;;17.10;45.80;;;;;;4954514;29;20172;-90
2023/04/10 11:16:40;;;;;;;22.65;20.85;;;16.90;44.70;;;;;;4954676;29;20179;-90
2023/04/10 11:19:08;;;;;;;23.63;21.75;;;17.00;44.70;;;;;;4954443;29;20179;-90
2023/04/10 11:21:34;;;;;;;22.05;20.38;;;17.10;44.60;;;;;;4954122;29;20223;-91
2023/04/10 11:23:59;;;;;;;24.67;22.67;;;16.90;44.10;;;;;;4954348;29;20171;-90
2023/04/10 11:26:34;;;;;;;24.17;22.27;;;17.20;45.90;;;;;;4954183;29;20175;-90
2023/04/10 11:29:05;;;;;;;23.63;21.75;;;17.10;45.70;;;;;;4955740;29;20657;-90
2023/04/10 11:31:34;;;;;;;23.60;21.80;;;17.10;45.30;;;;;;4954207;29;20631;-90
2023/04/10 11:34:03;;;;;;;22.33;20.73;;;17.40;42.10;;;;;;4954145;29;20178;-91
2023/04/10 11:36:29;;;;;;;24.13;21.92;;;17.40;43.30;;;;;;4954144;29;20215;-90
2023/04/10 11:38:59;;;;;;;23.00;21.00;;;17.50;45.00;;;;;;4954024;29;20171;-90
2023/04/10 11:41:30;;;;;;;23.05;21.27;;;17.30;43.70;;;;;;4954009;29;20689;-90
2023/04/10 11:44:00;;;;;;;23.70;21.65;;;17.40;42.10;;;;;;4953976;29;20543;-90
2023/04/10 11:46:27;;;;;;;23.35;21.55;;;17.50;43.20;;;;;;4953983;29;20678;-90
2023/04/10 11:48:58;;;;;;;23.17;21.38;;;17.70;44.80;;;;;;4953993;29;20591;-90
2023/04/10 11:51:26;;;;;;;23.55;21.75;;;17.50;42.90;;;;;;4954041;29;20203;-90
2023/04/10 11:54:07;;;;;;;24.00;22.20;;;17.30;43.50;;;;;;4954035;29;20179;-90
2023/04/10 11:56:33;;;;;;;24.25;22.05;;;17.30;44.80;;;;;;4955250;29;20198;-90
2023/04/10 11:59:01;;;;;;;23.50;21.60;;;17.40;44.40;;;;;;4953842;29;20190;-90
2023/04/10 12:01:27;;;;;;;23.45;21.60;;;17.50;43.30;;;;;;4955020;29;20211;-90
2023/04/10 12:03:52;;;;;;;23.55;21.85;;;17.50;45.70;;;;;;4956892;28;20274;-90
2023/04/10 12:06:19;;;;;;;27.33;25.02;;;17.50;43.00;;;;;;4959173;29;20218;-91
2023/04/10 12:08:49;;;;;;;23.48;21.30;;;17.60;43.90;;;;;;4958156;29;20181;-91
2023/04/10 12:11:19;;;;;;;23.67;21.95;;;17.20;43.30;;;;;;4959052;28;20211;-90
2023/04/10 12:13:45;;;;;;;24.17;22.33;;;17.20;44.10;;;;;;4959054;29;20323;-90
2023/04/10 12:16:11;;;;;;;23.80;21.90;;;17.50;45.10;;;;;;4957965;29;20183;-91
2023/04/10 12:18:37;;;;;;;24.13;22.33;;;17.60;40.80;;;;;;4958531;29;20175;-90
2023/04/10 12:21:03;;;;;;;22.48;20.88;;;17.70;42.20;;;;;;4958660;29;20286;-88
2023/04/10 12:23:29;;;;;;;23.40;21.70;;;17.80;42.20;;;;;;4957676;29;20222;-90
2023/04/10 12:26:07;;;;;;;23.15;21.20;;;17.80;44.50;;;;;;4957510;29;20286;-92
2023/04/10 12:28:33;;;;;;;22.80;21.00;;;17.60;43.60;;;;;;4958036;29;20175;-92
2023/04/10 12:30:58;;;;;;;21.88;20.27;;;17.60;44.20;;;;;;4957672;29;20202;-88
2023/04/10 12:33:24;;;;;;;22.40;20.70;;;17.40;43.70;;;;;;4957381;29;20242;-89
2023/04/10 12:35:50;;;;;;;23.08;21.35;;;17.50;43.20;;;;;;4958458;29;20186;-90
2023/04/10 12:38:36;;;;;;;23.55;21.75;;;17.50;43.60;;;;;;4957250;29;20183;-90